Terminal Aerodrome Forecast
Issued by NWS Sterling, VA

Current Version | Previous Version | Graphics & Text | Print | Product List | Glossary On
Versions: 1 2 3 4 5 6 7 8 9 10 11 12 13 14 15 16 17 18
000
FTUS41 KLWX 270527
TAFMRB
TAF
KMRB 270527Z 2706/2806 VRB03KT 5SM BR SCT025 OVC050
     FM270700 30005KT P6SM FEW050 BKN200
     FM271800 23005KT P6SM FEW200
     FM272300 VRB03KT P6SM FEW200=

USA.gov is the U.S. government's official web portal to all federal, state and local government web resources and services.